createdAt,value
2023-03-06T00:00:29.698Z,78.04
2023-03-06T00:02:56.692Z,77.76
2023-03-06T00:05:23.296Z,77.40
2023-03-06T00:07:50.032Z,77.76
2023-03-06T00:10:28.239Z,78.05
2023-03-06T00:12:56.588Z,78.02
2023-03-06T00:15:24.427Z,78.25
2023-03-06T00:17:50.885Z,78.66
2023-03-06T00:20:17.644Z,79.02
2023-03-06T00:22:44.207Z,79.72
2023-03-06T00:25:17.105Z,80.26
2023-03-06T00:27:44.078Z,80.69
2023-03-06T00:30:12.876Z,80.29
2023-03-06T00:32:39.636Z,80.47
2023-03-06T00:35:06.429Z,80.10
2023-03-06T00:37:32.962Z,80.60
2023-03-06T00:39:59.714Z,80.50
2023-03-06T00:42:26.185Z,81.04
2023-03-06T00:44:52.670Z,81.04
2023-03-06T00:47:19.213Z,80.57
2023-03-06T00:49:45.703Z,79.92
2023-03-06T00:52:13.211Z,80.89
2023-03-06T00:54:40.321Z,80.95
2023-03-06T00:57:07.582Z,81.56
2023-03-06T00:59:34.079Z,81.79
2023-03-06T01:02:00.527Z,80.60
2023-03-06T01:04:27.199Z,80.05
2023-03-06T01:06:53.683Z,80.61
2023-03-06T01:09:20.248Z,81.08
2023-03-06T01:11:46.972Z,80.88
2023-03-06T01:14:13.563Z,81.04
2023-03-06T01:16:40.093Z,80.58
2023-03-06T01:19:06.514Z,80.16
2023-03-06T01:21:32.987Z,80.21
2023-03-06T01:23:59.355Z,79.51
2023-03-06T01:26:25.789Z,79.67
2023-03-06T01:28:52.191Z,78.89
2023-03-06T01:31:18.662Z,78.43
2023-03-06T01:33:45.177Z,78.90
2023-03-06T01:36:12.954Z,79.45
2023-03-06T01:38:39.434Z,79.09
2023-03-06T01:41:06.350Z,80.54
2023-03-06T01:43:38.282Z,80.86
2023-03-06T01:46:28.874Z,82.29
2023-03-06T01:49:11.948Z,81.16
2023-03-06T01:51:48.935Z,82.28
2023-03-06T01:54:24.116Z,81.60
2023-03-06T01:56:56.054Z,81.64
2023-03-06T01:59:24.849Z,81.14
2023-03-06T02:01:51.376Z,81.13
2023-03-06T02:04:19.430Z,81.07
2023-03-06T02:06:47.381Z,81.00
2023-03-06T02:09:14.322Z,81.68
2023-03-06T02:11:44.048Z,83.57
2023-03-06T02:14:13.549Z,84.04
2023-03-06T02:16:41.543Z,84.65
2023-03-06T02:19:21.186Z,84.80
2023-03-06T02:21:47.712Z,84.11
2023-03-06T02:24:51.301Z,83.77
2023-03-06T02:27:19.436Z,84.40
2023-03-06T02:29:46.125Z,84.16
2023-03-06T02:32:12.608Z,83.66
2023-03-06T02:34:38.994Z,84.40
2023-03-06T02:37:08.923Z,83.78
2023-03-06T02:39:41.591Z,83.80
2023-03-06T02:42:08.200Z,83.62
2023-03-06T02:44:35.840Z,83.66
2023-03-06T02:47:02.256Z,83.18
2023-03-06T02:49:28.670Z,83.35
2023-03-06T02:51:55.082Z,83.26
2023-03-06T02:54:21.452Z,83.87
2023-03-06T02:56:47.951Z,83.66
2023-03-06T02:59:14.366Z,83.78
2023-03-06T03:01:40.844Z,84.01
2023-03-06T03:04:08.080Z,84.42
2023-03-06T03:06:34.561Z,84.94
2023-03-06T03:09:01.070Z,84.94
2023-03-06T03:11:27.502Z,84.56
2023-03-06T03:13:53.943Z,84.20
2023-03-06T03:16:20.422Z,84.93
2023-03-06T03:18:51.040Z,84.94
2023-03-06T03:21:18.148Z,85.15
2023-03-06T03:23:44.679Z,85.22
2023-03-06T03:26:15.522Z,85.00
2023-03-06T03:28:42.277Z,85.27
2023-03-06T03:31:10.274Z,85.36
2023-03-06T03:33:36.944Z,85.99
2023-03-06T03:36:05.776Z,86.54
2023-03-06T03:38:32.982Z,86.20
2023-03-06T03:41:01.477Z,86.90
2023-03-06T03:43:28.099Z,86.26
2023-03-06T03:45:54.632Z,86.30
2023-03-06T03:48:21.308Z,86.37
2023-03-06T03:50:47.837Z,86.27
2023-03-06T03:53:14.288Z,86.80
2023-03-06T03:55:40.652Z,87.12
2023-03-06T03:58:07.069Z,87.89
2023-03-06T04:00:33.551Z,87.83
2023-03-06T04:03:00.019Z,87.84
2023-03-06T04:05:26.390Z,87.84
2023-03-06T04:07:52.842Z,87.80
2023-03-06T04:10:19.341Z,88.03
2023-03-06T04:12:45.762Z,87.79
2023-03-06T04:15:12.315Z,88.11
2023-03-06T04:17:38.747Z,88.25
2023-03-06T04:20:05.597Z,87.74
2023-03-06T04:22:32.061Z,87.85
2023-03-06T04:24:58.526Z,87.87
2023-03-06T04:27:25.036Z,88.06
2023-03-06T04:29:51.517Z,88.57
2023-03-06T04:32:19.724Z,89.16
2023-03-06T04:34:47.704Z,89.77
2023-03-06T04:37:24.098Z,90.36
2023-03-06T04:39:50.942Z,90.76
2023-03-06T04:42:17.828Z,89.88
2023-03-06T04:44:45.072Z,89.81
2023-03-06T04:47:12.158Z,90.18
2023-03-06T04:49:38.660Z,90.80
2023-03-06T04:52:05.460Z,90.39
2023-03-06T04:54:31.877Z,89.97
2023-03-06T04:56:58.308Z,90.54
2023-03-06T04:59:24.915Z,89.42
2023-03-06T05:01:51.387Z,89.08
2023-03-06T05:04:17.848Z,89.60
2023-03-06T05:06:44.268Z,89.77
2023-03-06T05:09:10.634Z,90.02
2023-03-06T05:11:37.049Z,90.67
2023-03-06T05:14:03.505Z,90.85
2023-03-06T05:16:30.078Z,90.95
2023-03-06T05:18:56.650Z,90.39
2023-03-06T05:21:23.113Z,90.60
2023-03-06T05:23:49.571Z,90.15
2023-03-06T05:26:16.250Z,90.73
2023-03-06T05:28:42.827Z,90.62
2023-03-06T05:31:09.510Z,90.56
2023-03-06T05:33:37.008Z,90.49
2023-03-06T05:36:03.711Z,90.34
2023-03-06T05:38:30.152Z,90.90
2023-03-06T05:40:56.621Z,90.82
2023-03-06T05:43:23.274Z,90.90
2023-03-06T05:45:50.569Z,90.28
2023-03-06T05:48:17.123Z,88.96
2023-03-06T05:50:43.613Z,89.12
2023-03-06T05:53:10.247Z,89.59
2023-03-06T05:55:36.726Z,89.24
2023-03-06T05:58:03.384Z,89.34
2023-03-06T06:00:30.026Z,88.82
2023-03-06T06:02:56.434Z,89.79
2023-03-06T06:05:23.110Z,89.68
2023-03-06T06:07:49.552Z,89.94
2023-03-06T06:10:16.114Z,89.53
2023-03-06T06:12:42.538Z,89.21
2023-03-06T06:15:09.439Z,88.86
2023-03-06T06:17:35.879Z,88.67
2023-03-06T06:20:02.364Z,88.53
2023-03-06T06:22:28.939Z,88.02
2023-03-06T06:24:55.423Z,87.70
2023-03-06T06:27:21.825Z,87.61
2023-03-06T06:29:51.684Z,87.60
2023-03-06T06:32:18.190Z,87.48
2023-03-06T06:34:44.640Z,86.97
2023-03-06T06:37:11.085Z,87.01
2023-03-06T06:39:37.484Z,86.95
2023-03-06T06:42:26.562Z,86.95
2023-03-06T06:44:51.434Z,86.31
2023-03-06T06:47:23.063Z,85.33
2023-03-06T06:49:55.417Z,87.40
2023-03-06T06:52:23.136Z,87.30
2023-03-06T06:54:49.600Z,87.47
2023-03-06T06:57:16.466Z,86.49
2023-03-06T06:59:42.959Z,87.10
2023-03-06T07:02:14.325Z,86.98
2023-03-06T07:04:52.225Z,86.51
2023-03-06T07:07:27.313Z,86.55
2023-03-06T07:09:54.726Z,86.36
2023-03-06T07:12:21.149Z,85.88
2023-03-06T07:14:48.373Z,85.43
2023-03-06T07:17:14.816Z,84.46
2023-03-06T07:19:41.355Z,84.23
2023-03-06T07:22:07.784Z,84.30
2023-03-06T07:24:34.529Z,84.89
2023-03-06T07:27:00.930Z,84.90
2023-03-06T07:29:27.466Z,84.60
2023-03-06T07:31:54.022Z,85.33
2023-03-06T07:34:20.442Z,85.31
2023-03-06T07:36:47.042Z,84.71
2023-03-06T07:39:13.488Z,84.65
2023-03-06T07:41:39.910Z,84.08
2023-03-06T07:44:06.450Z,83.69
2023-03-06T07:46:32.975Z,83.06
2023-03-06T07:48:59.511Z,83.03
2023-03-06T07:51:26.090Z,83.01
2023-03-06T07:53:52.504Z,83.80
2023-03-06T07:56:19.054Z,84.41
2023-03-06T07:58:46.781Z,83.89
2023-03-06T08:01:16.592Z,83.88
2023-03-06T08:03:43.312Z,83.33
2023-03-06T08:06:12.565Z,83.68
2023-03-06T08:08:40.626Z,83.28
2023-03-06T08:11:08.982Z,83.12
2023-03-06T08:13:35.904Z,82.47
2023-03-06T08:16:03.656Z,82.40
2023-03-06T08:18:30.226Z,82.88
2023-03-06T08:21:09.829Z,83.15
2023-03-06T08:23:36.951Z,83.03
2023-03-06T08:26:10.429Z,83.54
2023-03-06T08:28:37.033Z,83.67
2023-03-06T08:31:11.307Z,84.41
2023-03-06T08:33:38.615Z,83.13
2023-03-06T08:36:05.609Z,82.67
2023-03-06T08:38:32.111Z,81.55
2023-03-06T08:40:58.558Z,82.56
2023-03-06T08:43:25.247Z,84.13
2023-03-06T08:45:53.361Z,81.89
2023-03-06T08:48:19.872Z,81.01
2023-03-06T08:50:46.475Z,81.47
2023-03-06T08:53:12.912Z,80.44
2023-03-06T08:55:39.470Z,79.73
2023-03-06T08:58:06.012Z,79.73
2023-03-06T09:00:33.512Z,80.21
2023-03-06T09:03:00.572Z,79.47
2023-03-06T09:05:27.346Z,79.09
2023-03-06T09:07:53.934Z,77.80
2023-03-06T09:10:22.916Z,76.62
2023-03-06T09:12:52.462Z,76.08
2023-03-06T09:15:21.571Z,74.91
2023-03-06T09:17:48.263Z,75.28
2023-03-06T09:20:15.341Z,73.91
2023-03-06T09:22:45.760Z,73.13
2023-03-06T09:25:13.748Z,73.21
2023-03-06T09:27:40.962Z,73.17
2023-03-06T09:30:08.258Z,74.68
2023-03-06T09:32:34.682Z,73.96
2023-03-06T09:35:01.351Z,73.35
2023-03-06T09:37:27.811Z,74.08
2023-03-06T09:39:54.324Z,73.94
2023-03-06T09:42:23.450Z,71.62
2023-03-06T09:44:59.976Z,71.98
2023-03-06T09:47:29.497Z,70.86
2023-03-06T09:50:44.505Z,73.24
2023-03-06T09:53:32.387Z,72.23
2023-03-06T09:56:20.458Z,73.19
2023-03-06T09:58:55.982Z,71.84
2023-03-06T10:01:34.875Z,72.29
2023-03-06T10:04:19.271Z,72.65
2023-03-06T10:06:49.091Z,72.85
2023-03-06T10:09:24.376Z,72.63
2023-03-06T10:12:15.824Z,71.30
2023-03-06T10:14:48.404Z,71.92
2023-03-06T10:17:22.137Z,70.10
2023-03-06T10:19:49.291Z,68.79
2023-03-06T10:22:38.690Z,64.71
2023-03-06T10:25:27.989Z,62.35
2023-03-06T10:28:18.626Z,62.46
2023-03-06T10:30:56.949Z,65.31
2023-03-06T10:33:44.396Z,64.47
2023-03-06T10:36:16.217Z,66.76
2023-03-06T10:38:44.435Z,64.60
2023-03-06T10:41:10.809Z,65.95
2023-03-06T10:43:43.373Z,69.42
2023-03-06T10:46:12.424Z,69.42
2023-03-06T10:48:42.006Z,69.28
2023-03-06T10:51:21.627Z,68.42
2023-03-06T10:53:56.052Z,66.25
2023-03-06T10:56:30.294Z,66.77
2023-03-06T10:59:25.380Z,65.88
2023-03-06T11:01:58.029Z,66.46
2023-03-06T11:04:33.737Z,65.88
2023-03-06T11:07:28.408Z,66.38
2023-03-06T11:09:57.885Z,65.63
2023-03-06T11:12:35.052Z,64.76
2023-03-06T11:15:17.677Z,64.51
2023-03-06T11:17:51.760Z,64.79
2023-03-06T11:20:44.684Z,64.27
2023-03-06T11:23:38.287Z,65.46
2023-03-06T11:26:04.829Z,64.71
2023-03-06T11:28:37.062Z,61.21
2023-03-06T11:31:13.702Z,61.71
2023-03-06T11:33:49.744Z,57.02
2023-03-06T11:36:25.217Z,56.93
2023-03-06T11:38:53.634Z,54.24
2023-03-06T11:41:31.141Z,53.93
2023-03-06T11:44:15.736Z,52.99
2023-03-06T19:57:34.291Z,74.87
2023-03-06T20:00:01.787Z,73.63
2023-03-06T20:02:28.373Z,73.73
2023-03-06T20:04:55.171Z,73.95
2023-03-06T20:07:22.204Z,73.18
2023-03-06T20:09:48.625Z,73.83
2023-03-06T20:12:15.989Z,74.35
2023-03-06T20:14:43.077Z,74.02
2023-03-06T20:17:09.604Z,75.24
2023-03-06T20:19:36.505Z,75.88
2023-03-06T20:22:03.341Z,74.94
2023-03-06T20:24:29.788Z,74.38
2023-03-06T20:26:57.610Z,74.27
2023-03-06T20:29:26.646Z,74.10
2023-03-06T20:31:56.106Z,74.05
2023-03-06T20:34:26.387Z,74.16
2023-03-06T20:36:53.224Z,74.43
2023-03-06T20:39:25.769Z,73.88
2023-03-06T20:41:52.322Z,73.92
2023-03-06T20:44:23.198Z,74.13
2023-03-06T20:46:52.042Z,73.84
2023-03-06T20:49:19.211Z,73.33
2023-03-06T20:51:49.972Z,73.60
2023-03-06T20:54:20.056Z,73.58
2023-03-06T20:56:48.975Z,73.43
2023-03-06T20:59:15.988Z,74.26
2023-03-06T21:01:44.861Z,74.16
2023-03-06T21:04:13.919Z,74.03
2023-03-06T21:06:42.489Z,74.00
2023-03-06T21:09:08.943Z,74.51
2023-03-06T21:11:35.574Z,74.50
2023-03-06T21:14:02.220Z,75.13
2023-03-06T21:16:30.438Z,75.08
2023-03-06T21:18:59.452Z,75.77
2023-03-06T21:21:32.030Z,75.29
2023-03-06T21:23:59.478Z,75.00
2023-03-06T21:26:28.872Z,75.39
2023-03-06T21:28:58.885Z,74.85
2023-03-06T21:31:29.521Z,74.69
2023-03-06T21:33:58.131Z,74.97
2023-03-06T21:36:25.164Z,74.71
2023-03-06T21:38:52.612Z,74.74
2023-03-06T21:41:24.787Z,75.27
2023-03-06T21:43:59.258Z,75.06
2023-03-06T21:46:29.944Z,75.10
2023-03-06T21:48:59.795Z,75.53
2023-03-06T21:51:26.919Z,75.62
2023-03-06T21:53:54.411Z,75.75
2023-03-06T21:56:28.307Z,76.10
2023-03-06T21:58:57.953Z,76.47
2023-03-06T22:01:27.482Z,76.99
2023-03-06T22:03:54.263Z,75.93
2023-03-06T22:06:24.204Z,76.05
2023-03-06T22:08:52.502Z,75.56
2023-03-06T22:11:20.840Z,75.80
2023-03-06T22:13:49.259Z,75.99
2023-03-06T22:16:16.838Z,75.65
2023-03-06T22:18:51.269Z,75.34
2023-03-06T22:21:20.326Z,74.78
2023-03-06T22:23:55.107Z,74.83
2023-03-06T22:26:21.660Z,75.56
2023-03-06T22:28:48.276Z,75.09
2023-03-06T22:31:29.008Z,74.72
2023-03-06T22:33:57.663Z,74.80
2023-03-06T22:36:25.228Z,74.65
2023-03-06T22:38:57.720Z,74.81
2023-03-06T22:41:28.740Z,74.38
2023-03-06T22:43:59.218Z,74.49
2023-03-06T22:46:26.522Z,74.43
2023-03-06T22:48:54.239Z,74.06
2023-03-06T22:51:21.145Z,74.14
2023-03-06T22:53:48.407Z,74.37
2023-03-06T22:56:20.280Z,73.57
2023-03-06T22:58:47.584Z,74.26
2023-03-06T23:01:23.190Z,74.05
2023-03-06T23:03:51.548Z,73.91
2023-03-06T23:06:24.012Z,74.19
2023-03-06T23:09:20.501Z,74.04
2023-03-06T23:11:49.352Z,73.53
2023-03-06T23:14:17.387Z,72.93
2023-03-06T23:16:44.440Z,72.73
2023-03-06T23:19:11.321Z,73.52
2023-03-06T23:21:37.856Z,74.29
2023-03-06T23:24:05.425Z,73.36
2023-03-06T23:26:34.246Z,74.05
2023-03-06T23:29:04.345Z,74.86
2023-03-06T23:31:31.563Z,75.15
2023-03-06T23:33:59.914Z,74.85
2023-03-06T23:36:27.128Z,74.64
2023-03-06T23:38:53.611Z,75.10
2023-03-06T23:41:21.688Z,74.80
2023-03-06T23:43:48.736Z,74.40
2023-03-06T23:46:15.623Z,74.70
2023-03-06T23:48:43.387Z,75.50
2023-03-06T23:51:15.537Z,76.42
2023-03-06T23:53:43.407Z,76.73
2023-03-06T23:56:09.917Z,76.49
2023-03-06T23:58:36.965Z,77.05
